Time;durP1;ratioP1;P1;durP2;ratioP2;P2;SDS_P1;SDS_P2;PMS_P1;PMS_P2;Temp;Humidity;BMP_temperature;BMP_pressure;BME280_temperature;BME280_humidity;BME280_pressure;Samples;Min_cycle;Max_cycle;Signal;HPM_P1;HPM_P2
2023/09/16 00:01:13;;;;;;;3.17;1.27;;;;;;;;;;4987175;28;20033;-81
2023/09/16 00:03:39;;;;;;;6.35;1.90;;;;;;;;;;4992592;28;20034;-81
2023/09/16 00:06:05;;;;;;;10.43;1.98;;;;;;;;;;5002395;28;20026;-79
2023/09/16 00:08:33;;;;;;;4.60;2.05;;;;;;;;;;4996395;28;20048;-81
2023/09/16 00:10:59;;;;;;;5.22;2.10;;;12.90;99.90;;;;;;4989501;28;20037;-79
2023/09/16 00:13:25;;;;;;;5.15;2.33;;;;;;;;;;4995324;28;20409;-80
2023/09/16 00:15:51;;;;;;;4.82;2.08;;;;;;;;;;4995411;28;20038;-84
2023/09/16 00:18:18;;;;;;;3.55;1.95;;;;;;;;;;5000047;28;20682;-80
2023/09/16 00:20:44;;;;;;;4.90;1.77;;;;;;;;;;4993175;28;20030;-85
2023/09/16 00:23:10;;;;;;;3.25;1.65;;;;;;;;;;4989591;28;20397;-82
2023/09/16 00:25:37;;;;;;;5.95;2.35;;;12.60;99.90;;;;;;4999603;28;20043;-80
2023/09/16 00:28:06;;;;;;;3.42;2.03;;;;;;;;;;4988725;28;21705;-83
2023/09/16 00:30:33;;;;;;;2.35;1.20;;;;;;;;;;4993323;28;20033;-81
2023/09/16 00:32:59;;;;;;;3.63;1.75;;;;;;;;;;4984712;28;20052;-81
2023/09/16 00:35:25;;;;;;;3.67;1.92;;;12.70;99.90;;;;;;4998258;28;20026;-80
2023/09/16 00:37:51;;;;;;;3.30;1.85;;;;;;;;;;4991787;28;20435;-80
2023/09/16 00:40:17;;;;;;;3.83;2.10;;;;;;;;;;5000304;28;20149;-82
2023/09/16 00:42:43;;;;;;;2.97;1.38;;;;;;;;;;4983310;28;20042;-80
2023/09/16 00:45:10;;;;;;;4.32;2.33;;;12.50;99.90;;;;;;4989990;28;20044;-80
2023/09/16 00:47:37;;;;;;;4.53;2.20;;;13.10;99.90;;;;;;4997765;28;20482;-81
2023/09/16 00:50:07;;;;;;;4.25;2.28;;;;;;;;;;4994297;28;20117;-80
2023/09/16 00:52:34;;;;;;;3.30;1.70;;;12.30;99.90;;;;;;4984949;28;20056;-81
2023/09/16 00:55:01;;;;;;;6.93;2.00;;;12.60;99.90;;;;;;5004797;28;20028;-81
2023/09/16 00:57:29;;;;;;;3.65;2.00;;;12.60;99.90;;;;;;4998593;28;20026;-80
2023/09/16 00:59:55;;;;;;;2.85;1.65;;;12.50;99.90;;;;;;4990622;28;20082;-80
2023/09/16 01:02:21;;;;;;;3.63;2.08;;;;;;;;;;4993542;28;20046;-83
2023/09/16 01:04:49;;;;;;;4.47;2.10;;;12.40;99.90;;;;;;4993324;28;20144;-80
2023/09/16 01:07:15;;;;;;;4.72;2.22;;;;;;;;;;5000574;28;20034;-80
2023/09/16 01:09:41;;;;;;;5.25;2.35;;;;;;;;;;4996863;28;20034;-82
2023/09/16 01:12:10;;;;;;;3.95;2.20;;;12.40;99.90;;;;;;4992637;28;20030;-80
2023/09/16 01:14:36;;;;;;;4.10;1.75;;;;;;;;;;5000135;28;20517;-79
2023/09/16 01:17:17;;;;;;;4.30;1.98;;;13.10;99.90;;;;;;4996666;28;20030;-81
2023/09/16 01:19:50;;;;;;;3.75;1.92;;;12.50;99.90;;;;;;4993832;28;20040;-79
2023/09/16 01:22:16;;;;;;;3.38;1.60;;;;;;;;;;4995608;28;20037;-80
2023/09/16 01:24:42;;;;;;;3.17;1.60;;;;;;;;;;5001380;28;20121;-80
2023/09/16 01:27:08;;;;;;;5.78;2.13;;;;;;;;;;4994179;28;20094;-80
2023/09/16 01:29:35;;;;;;;4.57;1.90;;;13.00;99.90;;;;;;4999842;28;20026;-80
2023/09/16 01:32:05;;;;;;;5.65;2.40;;;12.00;99.90;;;;;;4981808;28;20560;-81
2023/09/16 01:34:41;;;;;;;2.78;1.92;;;12.30;99.90;;;;;;4994569;28;20077;-79
2023/09/16 01:37:12;;;;;;;5.47;1.98;;;13.00;99.90;;;;;;4995202;28;20726;-80
2023/09/16 01:39:40;;;;;;;8.20;2.25;;;;;;;;;;4997806;28;20504;-81
2023/09/16 01:42:06;;;;;;;3.72;1.90;;;;;;;;;;4989869;28;20564;-80
2023/09/16 01:44:32;;;;;;;3.97;1.85;;;;;;;;;;5000181;28;20034;-80
2023/09/16 01:46:58;;;;;;;7.85;1.88;;;;;;;;;;5002867;28;20029;-79
2023/09/16 01:49:24;;;;;;;3.88;2.22;;;;;;;;;;4994617;28;20030;-79
2023/09/16 01:51:50;;;;;;;5.93;1.83;;;;;;;;;;4985556;28;20038;-80
2023/09/16 01:54:16;;;;;;;3.30;1.65;;;;;;;;;;5002127;28;20032;-80
2023/09/16 01:56:45;;;;;;;2.80;1.63;;;12.20;99.90;;;;;;4996631;28;20034;-82
2023/09/16 01:59:11;;;;;;;3.00;1.63;;;;;;;;;;4996586;28;20030;-81
2023/09/16 02:01:37;;;;;;;3.70;1.83;;;;;;;;;;4990138;28;20464;-81
2023/09/16 02:04:03;;;;;;;3.63;1.80;;;;;;;;;;5006804;28;20136;-80
2023/09/16 02:06:29;;;;;;;7.40;1.70;;;;;;;;;;4997172;28;20040;-82
2023/09/16 02:08:55;;;;;;;3.92;1.98;;;;;;;;;;4995120;28;20576;-82
2023/09/16 02:11:21;;;;;;;5.57;1.88;;;;;;;;;;4985084;28;20079;-82
2023/09/16 02:13:47;;;;;;;4.53;1.70;;;;;;;;;;4995758;28;20077;-79
2023/09/16 02:16:13;;;;;;;4.82;1.88;;;;;;;;;;4999284;28;20036;-79
2023/09/16 02:18:39;;;;;;;8.82;2.40;;;12.30;99.90;;;;;;4997901;28;20081;-79
2023/09/16 02:21:07;;;;;;;5.95;1.92;;;;;;;;;;4991100;28;20045;-82
2023/09/16 02:23:33;;;;;;;3.30;1.95;;;;;;;;;;4992807;28;20061;-79
2023/09/16 02:26:02;;;;;;;3.75;1.55;;;12.20;99.90;;;;;;4992990;28;20412;-83
2023/09/16 02:28:28;;;;;;;4.00;1.92;;;;;;;;;;4996148;28;20100;-80
2023/09/16 02:30:54;;;;;;;4.22;1.92;;;;;;;;;;4992158;28;22033;-81
2023/09/16 02:33:20;;;;;;;3.92;1.90;;;;;;;;;;4994431;28;20026;-78
2023/09/16 02:35:47;;;;;;;7.65;2.20;;;;;;;;;;4993205;28;20969;-82
2023/09/16 02:38:13;;;;;;;2.53;1.35;;;;;;;;;;4993896;28;20090;-79
2023/09/16 02:40:42;;;;;;;2.65;1.48;;;;;;;;;;4991713;28;20034;-84
2023/09/16 02:43:09;;;;;;;5.88;2.05;;;;;;;;;;4995016;28;20038;-82
2023/09/16 02:45:44;;;;;;;4.25;2.33;;;12.10;99.90;;;;;;4993289;28;20459;-80
2023/09/16 02:48:10;;;;;;;6.85;2.05;;;;;;;;;;4996212;28;20555;-80
2023/09/16 02:50:39;;;;;;;3.35;1.48;;;;;;;;;;4998081;28;20053;-81
2023/09/16 02:53:06;;;;;;;3.85;1.85;;;;;;;;;;4991947;28;20081;-83
2023/09/16 02:55:32;;;;;;;4.32;1.95;;;11.70;99.90;;;;;;4998284;28;20057;-83
2023/09/16 02:58:02;;;;;;;3.00;1.63;;;11.60;99.90;;;;;;4993265;28;20030;-84
2023/09/16 03:00:28;;;;;;;3.38;1.27;;;;;;;;;;4984650;28;20037;-82
2023/09/16 03:02:54;;;;;;;3.78;2.13;;;;;;;;;;4981819;28;20045;-80
2023/09/16 03:05:20;;;;;;;4.93;2.13;;;;;;;;;;4997308;28;20094;-80
2023/09/16 03:07:46;;;;;;;3.72;1.77;;;;;;;;;;5003715;28;20052;-82
2023/09/16 03:10:12;;;;;;;7.93;2.45;;;;;;;;;;5016518;28;20033;-84
2023/09/16 03:12:38;;;;;;;7.22;2.35;;;;;;;;;;5010826;28;20076;-83
2023/09/16 03:15:04;;;;;;;3.85;1.67;;;;;;;;;;5003403;28;20040;-82
2023/09/16 03:17:30;;;;;;;3.72;2.05;;;;;;;;;;5001477;28;20552;-83
2023/09/16 03:19:57;;;;;;;4.00;2.08;;;;;;;;;;4998251;28;20030;-81
2023/09/16 03:22:22;;;;;;;3.47;1.77;;;11.40;99.90;;;;;;4983091;28;20042;-80
2023/09/16 03:24:48;;;;;;;3.50;1.65;;;11.50;99.90;;;;;;4985466;28;20034;-81
2023/09/16 03:27:15;;;;;;;5.20;2.13;;;;;;;;;;4992906;28;20116;-81
2023/09/16 03:29:41;;;;;;;2.80;1.83;;;12.10;99.90;;;;;;4992702;28;20713;-80
2023/09/16 03:32:07;;;;;;;6.05;2.17;;;;;;;;;;4984916;28;20505;-81
2023/09/16 03:34:33;;;;;;;3.88;1.85;;;;;;;;;;4992068;28;20121;-81
2023/09/16 03:36:59;;;;;;;3.38;1.95;;;;;;;;;;4991066;28;20117;-81
2023/09/16 03:39:25;;;;;;;4.75;1.30;;;;;;;;;;4996778;28;20469;-83
2023/09/16 03:41:51;;;;;;;4.28;2.08;;;;;;;;;;4992627;28;20040;-83
2023/09/16 03:44:17;;;;;;;3.90;1.92;;;;;;;;;;5001691;28;20104;-82
2023/09/16 03:46:43;;;;;;;3.83;1.58;;;;;;;;;;4995330;28;20034;-82
2023/09/16 03:49:09;;;;;;;2.80;1.65;;;;;;;;;;5001785;28;20086;-85
2023/09/16 03:51:35;;;;;;;3.75;1.88;;;;;;;;;;4982091;28;20033;-85
2023/09/16 03:54:01;;;;;;;3.10;1.83;;;11.30;99.90;;;;;;4991260;28;20058;-82
2023/09/16 03:56:27;;;;;;;5.18;1.73;;;;;;;;;;5003326;28;20026;-81
2023/09/16 03:58:53;;;;;;;3.20;1.52;;;;;;;;;;4995952;28;20026;-83
2023/09/16 04:01:19;;;;;;;3.92;1.88;;;;;;;;;;4990454;28;20040;-83
2023/09/16 04:03:45;;;;;;;3.22;1.75;;;;;;;;;;4995004;28;20113;-82
2023/09/16 04:06:11;;;;;;;4.13;2.13;;;;;;;;;;4995603;28;20014;-82
2023/09/16 04:08:37;;;;;;;5.03;2.13;;;;;;;;;;4993647;28;20162;-82
2023/09/16 04:11:03;;;;;;;7.25;2.58;;;;;;;;;;4998160;28;20030;-81
2023/09/16 04:13:28;;;;;;;3.60;1.92;;;;;;;;;;4997632;28;20026;-82
2023/09/16 04:15:54;;;;;;;4.75;2.20;;;;;;;;;;4999442;28;20109;-84
2023/09/16 04:18:20;;;;;;;3.85;1.92;;;;;;;;;;4998021;28;20037;-82
2023/09/16 04:20:48;;;;;;;4.55;2.30;;;;;;;;;;4995001;28;20028;-79
2023/09/16 04:23:14;;;;;;;4.55;2.03;;;;;;;;;;5001115;28;20046;-79
2023/09/16 04:25:40;;;;;;;4.40;2.00;;;;;;;;;;5002860;28;20037;-83
2023/09/16 04:28:06;;;;;;;4.30;2.08;;;;;;;;;;4992310;28;20145;-81
2023/09/16 04:30:37;;;;;;;4.55;1.90;;;;;;;;;;5002387;28;20045;-82
2023/09/16 04:33:03;;;;;;;3.80;2.17;;;;;;;;;;4992985;28;20030;-83
2023/09/16 04:35:29;;;;;;;5.25;2.78;;;;;;;;;;5000606;28;20045;-84
2023/09/16 04:37:55;;;;;;;5.32;2.53;;;;;;;;;;5003205;28;20396;-82
2023/09/16 04:40:21;;;;;;;4.03;2.08;;;;;;;;;;4999457;28;20088;-82
2023/09/16 04:42:47;;;;;;;3.47;1.90;;;;;;;;;;4986193;28;20038;-82
2023/09/16 04:45:14;;;;;;;4.43;2.50;;;;;;;;;;4998251;28;20057;-82
2023/09/16 04:47:41;;;;;;;6.85;2.60;;;;;;;;;;4997489;28;20025;-81
2023/09/16 04:50:07;;;;;;;3.70;2.40;;;;;;;;;;4997493;28;20037;-80
2023/09/16 04:52:33;;;;;;;3.72;1.77;;;;;;;;;;4987921;28;20026;-80
2023/09/16 04:54:59;;;;;;;4.93;2.22;;;;;;;;;;4994024;28;20026;-82
2023/09/16 04:57:25;;;;;;;7.00;2.65;;;;;;;;;;4991129;28;21024;-80
2023/09/16 04:59:51;;;;;;;6.93;2.70;;;;;;;;;;4991696;28;20030;-81
2023/09/16 05:02:17;;;;;;;4.47;2.67;;;;;;;;;;4985094;28;20040;-83
2023/09/16 05:04:43;;;;;;;4.90;2.80;;;;;;;;;;4997712;28;20400;-80
2023/09/16 05:07:09;;;;;;;4.38;1.85;;;;;;;;;;5005001;28;20100;-80
2023/09/16 05:09:35;;;;;;;7.35;2.92;;;;;;;;;;4998432;28;20477;-79
2023/09/16 05:12:02;;;;;;;4.97;2.55;;;;;;;;;;4997025;28;20041;-79
2023/09/16 05:14:28;;;;;;;5.05;2.40;;;;;;;;;;4996551;28;20029;-80
2023/09/16 05:16:54;;;;;;;7.47;2.97;;;;;;;;;;5005060;28;20022;-79
2023/09/16 05:19:20;;;;;;;6.35;2.63;;;;;;;;;;5004331;28;20041;-80
2023/09/16 05:21:46;;;;;;;5.22;2.65;;;;;;;;;;5002014;28;20030;-80
2023/09/16 05:24:12;;;;;;;5.25;2.53;;;;;;;;;;5000719;28;20050;-80
2023/09/16 05:26:38;;;;;;;5.32;2.70;;;;;;;;;;5008776;28;20101;-80
2023/09/16 05:29:04;;;;;;;5.30;2.75;;;;;;;;;;4996640;28;20581;-80
2023/09/16 05:31:30;;;;;;;5.53;3.08;;;;;;;;;;4997352;28;20033;-79
2023/09/16 05:33:56;;;;;;;5.18;2.20;;;;;;;;;;4994335;28;20045;-79
2023/09/16 05:36:23;;;;;;;6.40;3.10;;;;;;;;;;4994728;28;20026;-79
2023/09/16 05:38:49;;;;;;;4.97;2.83;;;;;;;;;;5002048;28;20036;-79
2023/09/16 05:41:15;;;;;;;3.83;2.05;;;;;;;;;;4995672;28;20026;-79
2023/09/16 05:43:41;;;;;;;4.20;2.30;;;;;;;;;;5003916;28;20030;-81
2023/09/16 05:46:07;;;;;;;6.25;3.40;;;11.40;99.90;;;;;;4999569;28;20021;-79
2023/09/16 05:48:33;;;;;;;7.82;3.33;;;;;;;;;;5003718;28;21449;-79
2023/09/16 05:50:59;;;;;;;5.57;2.35;;;12.00;99.90;;;;;;4999120;28;20385;-79
2023/09/16 05:53:26;;;;;;;4.55;2.70;;;12.10;99.90;;;;;;5002421;28;20311;-79
2023/09/16 05:55:55;;;;;;;7.75;3.72;;;;;;;;;;5001021;28;20155;-80
2023/09/16 05:58:21;;;;;;;5.30;2.53;;;;;;;;;;4999501;28;20499;-80
2023/09/16 06:00:59;;;;;;;6.55;2.60;;;12.00;99.90;;;;;;4996545;28;20034;-79
2023/09/16 06:03:25;;;;;;;5.07;3.05;;;;;;;;;;5002378;28;20101;-81
2023/09/16 06:05:59;;;;;;;4.80;2.78;;;12.00;99.90;;;;;;4993530;28;20144;-79
2023/09/16 06:08:25;;;;;;;5.90;3.05;;;;;;;;;;4997059;28;20058;-80
2023/09/16 06:10:51;;;;;;;5.32;2.92;;;;;;;;;;4992216;28;20030;-81
2023/09/16 06:13:17;;;;;;;6.20;2.47;;;;;;;;;;4994771;28;20053;-81
2023/09/16 06:15:43;;;;;;;7.72;3.72;;;;;;;;;;4993994;28;22080;-82
2023/09/16 06:18:09;;;;;;;5.60;3.00;;;12.00;99.90;;;;;;4997354;28;20034;-80
2023/09/16 06:20:35;;;;;;;6.28;3.08;;;;;;;;;;4994112;28;20029;-79
2023/09/16 06:23:03;;;;;;;8.05;3.35;;;;;;;;;;4990814;28;20092;-83
2023/09/16 06:25:30;;;;;;;7.70;3.47;;;12.00;99.90;;;;;;4995577;28;20022;-82
2023/09/16 06:27:58;;;;;;;7.97;3.47;;;;;;;;;;4995921;28;20097;-78
2023/09/16 06:30:24;;;;;;;9.65;3.85;;;;;;;;;;4996160;28;20072;-80
2023/09/16 06:32:50;;;;;;;8.15;4.30;;;;;;;;;;4996234;28;20091;-80
2023/09/16 06:35:16;;;;;;;6.13;3.05;;;;;;;;;;4988427;28;20026;-82
2023/09/16 06:37:42;;;;;;;6.72;3.90;;;;;;;;;;4995965;28;20030;-81
2023/09/16 06:40:08;;;;;;;5.95;2.95;;;;;;;;;;5001191;28;20053;-80
2023/09/16 06:42:34;;;;;;;6.10;2.92;;;;;;;;;;4993601;28;20103;-80
2023/09/16 06:45:00;;;;;;;10.00;4.00;;;;;;;;;;4996018;28;20856;-79
2023/09/16 06:47:26;;;;;;;9.45;4.78;;;;;;;;;;4995713;28;20133;-81
2023/09/16 06:49:52;;;;;;;6.70;4.03;;;;;;;;;;4997272;28;20030;-79
2023/09/16 06:52:18;;;;;;;9.20;4.07;;;;;;;;;;4992012;28;20113;-81
2023/09/16 06:54:45;;;;;;;8.57;4.35;;;;;;;;;;4998981;28;20129;-81
2023/09/16 06:57:11;;;;;;;7.88;4.75;;;;;;;;;;5003917;28;20100;-80
2023/09/16 06:59:37;;;;;;;7.40;4.05;;;;;;;;;;4998462;28;20627;-80
2023/09/16 07:02:03;;;;;;;7.75;4.40;;;;;;;;;;4997722;28;20034;-80
2023/09/16 07:04:29;;;;;;;10.48;5.13;;;;;;;;;;4995920;28;20037;-80
2023/09/16 07:06:55;;;;;;;8.90;4.85;;;;;;;;;;4997411;28;20040;-80
2023/09/16 07:09:21;;;;;;;9.63;5.03;;;15.20;99.90;;;;;;5004167;28;20029;-80
2023/09/16 07:11:47;;;;;;;10.65;4.75;;;;;;;;;;4999209;28;20027;-81
2023/09/16 07:14:12;;;;;;;9.77;4.75;;;;;;;;;;4996772;28;20491;-82
2023/09/16 07:16:40;;;;;;;10.77;5.28;;;;;;;;;;5002180;28;20377;-80
2023/09/16 07:19:06;;;;;;;10.50;4.90;;;14.70;99.90;;;;;;5005896;28;20026;-80
2023/09/16 07:21:32;;;;;;;12.15;5.68;;;;;;;;;;5001969;28;20061;-80
2023/09/16 07:24:02;;;;;;;9.90;4.78;;;14.80;99.90;;;;;;5000315;28;20436;-80
2023/09/16 07:26:28;;;;;;;9.23;5.00;;;;;;;;;;5012497;28;20030;-81
2023/09/16 07:28:54;;;;;;;9.38;4.90;;;;;;;;;;5012398;28;20026;-81
2023/09/16 07:31:20;;;;;;;8.98;4.95;;;;;;;;;;5016152;28;20022;-82
2023/09/16 07:33:50;;;;;;;9.55;5.00;;;;;;;;;;4996482;28;20038;-82
2023/09/16 07:36:16;;;;;;;8.45;4.45;;;;;;;;;;5001156;28;20042;-82
2023/09/16 07:38:42;;;;;;;7.95;4.13;;;;;;;;;;5000432;28;20110;-82
2023/09/16 07:41:08;;;;;;;8.98;4.78;;;;;;;;;;4996609;28;20030;-82
2023/09/16 07:43:34;;;;;;;9.07;4.60;;;;;;;;;;4995968;28;20038;-81
2023/09/16 07:46:00;;;;;;;8.05;4.70;;;;;;;;;;4996482;28;20023;-81
2023/09/16 07:48:26;;;;;;;8.13;4.38;;;;;;;;;;4997582;28;20484;-86
2023/09/16 07:50:54;;;;;;;8.25;4.50;;;;;;;;;;4992025;28;20504;-80
2023/09/16 07:53:20;;;;;;;7.72;4.70;;;;;;;;;;4994249;28;20037;-82
2023/09/16 07:55:46;;;;;;;7.80;4.32;;;;;;;;;;4992656;28;20030;-84
2023/09/16 07:58:12;;;;;;;9.57;4.93;;;;;;;;;;4993915;28;20026;-85
2023/09/16 08:00:38;;;;;;;7.53;4.30;;;;;;;;;;4994038;28;20025;-81
2023/09/16 08:03:04;;;;;;;6.22;4.35;;;;;;;;;;4997398;28;20082;-82
2023/09/16 08:05:30;;;;;;;8.40;4.25;;;;;;;;;;5001395;28;20029;-82
2023/09/16 08:07:56;;;;;;;8.30;4.38;;;;;;;;;;4996784;28;20026;-82
2023/09/16 08:10:22;;;;;;;7.50;4.05;;;;;;;;;;5003174;28;20054;-82
2023/09/16 08:12:48;;;;;;;11.02;4.20;;;;;;;;;;4996852;28;20022;-82
2023/09/16 08:15:14;;;;;;;7.47;4.05;;;;;;;;;;5005341;28;20041;-81
2023/09/16 08:17:40;;;;;;;4.85;2.78;;;;;;;;;;5003742;28;20071;-81
2023/09/16 08:20:09;;;;;;;5.72;3.15;;;25.80;99.90;;;;;;5001864;28;20631;-80
2023/09/16 08:22:35;;;;;;;5.07;2.78;;;24.70;99.90;;;;;;4997462;28;20061;-81
2023/09/16 08:25:03;;;;;;;5.03;2.63;;;25.60;99.90;;;;;;5000583;28;20535;-80
2023/09/16 08:27:29;;;;;;;5.55;2.63;;;;;;;;;;5000013;28;20038;-82
2023/09/16 08:29:55;;;;;;;5.32;2.53;;;;;;;;;;4993220;28;20041;-83
2023/09/16 08:32:22;;;;;;;3.88;2.17;;;;;;;;;;5008384;28;20067;-82
2023/09/16 08:34:50;;;;;;;6.63;2.78;;;;;;;;;;4993625;28;20121;-81
2023/09/16 08:37:16;;;;;;;4.15;2.22;;;;;;;;;;4997541;28;20061;-83
2023/09/16 08:39:42;;;;;;;10.77;3.05;;;;;;;;;;5000026;28;20488;-81
2023/09/16 08:42:22;;;;;;;3.22;2.08;;;24.80;99.90;;;;;;5000359;28;20663;-83
2023/09/16 08:44:52;;;;;;;4.40;2.10;;;26.50;99.90;;;;;;4999164;28;20034;-82
2023/09/16 08:47:47;;;;;;;3.40;2.03;;;28.60;99.90;;;;;;5006109;28;20053;-82
2023/09/16 08:50:13;;;;;;;3.53;1.98;;;;;;;;;;4999140;28;20050;-83
2023/09/16 08:52:53;;;;;;;2.67;1.38;;;31.80;99.70;;;;;;4995910;28;20041;-83
2023/09/16 08:55:20;;;;;;;2.90;1.70;;;;;;;;;;4988741;28;20049;-85
2023/09/16 08:57:55;;;;;;;4.00;2.00;;;33.80;97.60;;;;;;4997045;28;20437;-82
2023/09/16 09:00:21;;;;;;;2.80;1.63;;;;;;;;;;4994066;28;20033;-82
2023/09/16 09:02:48;;;;;;;4.82;2.28;;;34.30;91.90;;;;;;4991543;28;20624;-83
2023/09/16 09:05:15;;;;;;;3.05;1.77;;;33.20;91.60;;;;;;4992924;28;20026;-81
2023/09/16 09:07:42;;;;;;;5.25;1.90;;;;;;;;;;4998958;28;20034;-82
2023/09/16 09:10:10;;;;;;;2.83;1.60;;;30.40;96.40;;;;;;5001458;28;20018;-84
2023/09/16 09:12:39;;;;;;;3.03;1.55;;;29.40;97.40;;;;;;5003529;28;20050;-82
2023/09/16 09:15:10;;;;;;;3.83;1.85;;;28.20;99.90;;;;;;5000880;28;20030;-80
2023/09/16 09:17:41;;;;;;;3.90;1.73;;;27.30;99.90;;;;;;5002708;28;20030;-83
2023/09/16 09:20:14;;;;;;;4.85;1.80;;;26.50;99.90;;;;;;5003977;28;20030;-85
2023/09/16 09:22:40;;;;;;;3.25;1.75;;;;;;;;;;4997043;28;20101;-81
2023/09/16 09:25:07;;;;;;;3.42;1.95;;;25.30;99.90;;;;;;5002262;28;20036;-81
2023/09/16 09:27:33;;;;;;;4.40;1.92;;;;;;;;;;4994281;28;20025;-85
2023/09/16 09:29:59;;;;;;;3.58;1.75;;;;;;;;;;4993298;28;20117;-82
2023/09/16 09:32:31;;;;;;;3.20;1.85;;;25.10;99.90;;;;;;4995873;28;20024;-87
2023/09/16 09:34:58;;;;;;;4.75;2.35;;;;;;;;;;4989895;28;20046;-84
2023/09/16 09:37:24;;;;;;;2.38;1.83;;;;;;;;;;4995754;28;20516;-82
2023/09/16 09:40:11;;;;;;;3.85;2.17;;;25.40;99.90;;;;;;4989247;28;20321;-80
2023/09/16 09:42:48;;;;;;;2.95;1.63;;;24.60;99.90;;;;;;4988035;28;20037;-79
2023/09/16 09:45:15;;;;;;;3.25;1.85;;;25.20;99.90;;;;;;4996121;28;20583;-81
2023/09/16 09:47:41;;;;;;;3.35;1.77;;;;;;;;;;4998396;28;20076;-80
2023/09/16 09:50:13;;;;;;;3.03;1.70;;;24.50;99.90;;;;;;4998504;28;20029;-81
2023/09/16 09:52:39;;;;;;;2.78;1.58;;;;;;;;;;4996501;28;20065;-80
2023/09/16 09:55:05;;;;;;;2.47;1.55;;;24.40;99.90;;;;;;4988292;28;20050;-80
2023/09/16 09:57:31;;;;;;;2.28;1.30;;;25.30;99.90;;;;;;4989048;28;20030;-80
2023/09/16 09:59:57;;;;;;;2.28;1.48;;;;;;;;;;4995758;28;20030;-81
2023/09/16 10:02:27;;;;;;;3.85;1.33;;;24.90;99.90;;;;;;5006686;28;20505;-83
2023/09/16 10:05:01;;;;;;;4.15;1.73;;;24.90;99.90;;;;;;4991152;28;20034;-81
2023/09/16 10:07:28;;;;;;;2.88;1.30;;;25.00;99.90;;;;;;4984767;28;24323;-80
2023/09/16 10:09:54;;;;;;;4.95;1.95;;;;;;;;;;4985914;28;20147;-81
2023/09/16 10:12:21;;;;;;;2.58;1.50;;;25.30;99.90;;;;;;4979841;28;20029;-78
2023/09/16 10:14:48;;;;;;;3.22;1.38;;;25.40;99.90;;;;;;4978591;28;20132;-82
2023/09/16 10:17:15;;;;;;;2.33;1.52;;;25.40;99.90;;;;;;4993559;28;20042;-80
2023/09/16 10:19:43;;;;;;;5.55;1.38;;;25.50;99.90;;;;;;4994272;28;20036;-84
2023/09/16 10:22:10;;;;;;;3.65;1.85;;;;;;;;;;5000181;28;20105;-86
2023/09/16 10:24:36;;;;;;;1.38;0.82;;;;;;;;;;4991530;28;20037;-82
2023/09/16 10:27:08;;;;;;;2.53;1.45;;;25.50;99.90;;;;;;4995412;28;20022;-84
2023/09/16 10:29:34;;;;;;;2.00;1.27;;;;;;;;;;4993002;28;20089;-82
2023/09/16 10:32:00;;;;;;;1.92;1.35;;;;;;;;;;5000406;28;20033;-81
2023/09/16 10:34:27;;;;;;;2.03;1.02;;;25.80;99.90;;;;;;4996960;28;20040;-81
2023/09/16 10:36:53;;;;;;;2.45;1.52;;;;;;;;;;4995425;28;20112;-82
2023/09/16 10:39:20;;;;;;;2.30;1.33;;;25.90;99.90;;;;;;5002918;28;20125;-82
2023/09/16 10:41:47;;;;;;;1.98;1.20;;;25.70;99.90;;;;;;5001861;28;20049;-82
2023/09/16 10:44:15;;;;;;;2.10;0.80;;;25.80;99.90;;;;;;5000705;28;20044;-83
2023/09/16 10:46:41;;;;;;;3.47;1.77;;;;;;;;;;5000577;28;20089;-82
2023/09/16 10:49:07;;;;;;;3.58;1.42;;;;;;;;;;4997882;28;20477;-83
2023/09/16 10:51:41;;;;;;;2.33;1.20;;;26.00;99.90;;;;;;4992463;28;20024;-82
2023/09/16 10:54:20;;;;;;;2.15;1.23;;;25.80;99.90;;;;;;5002203;28;20033;-84
2023/09/16 10:56:48;;;;;;;3.15;1.48;;;26.00;99.90;;;;;;5000569;28;20231;-81
2023/09/16 10:59:17;;;;;;;2.97;1.02;;;25.90;99.90;;;;;;4993439;28;20038;-81
2023/09/16 11:01:57;;;;;;;3.97;1.30;;;26.10;99.90;;;;;;4989335;28;20106;-81
2023/09/16 11:04:24;;;;;;;5.57;0.80;;;26.10;99.90;;;;;;4995357;28;20042;-82
2023/09/16 11:06:53;;;;;;;3.35;1.73;;;;;;;;;;4989969;28;20022;-81
2023/09/16 11:09:20;;;;;;;2.60;1.15;;;26.30;99.90;;;;;;4977832;28;20094;-85
2023/09/16 11:11:48;;;;;;;2.35;1.20;;;26.10;99.90;;;;;;4982626;28;20034;-84
2023/09/16 11:14:15;;;;;;;2.65;1.45;;;26.30;99.90;;;;;;4987805;28;20033;-82
2023/09/16 11:16:52;;;;;;;2.50;1.38;;;26.00;98.50;;;;;;4997464;28;20038;-82
2023/09/16 11:19:24;;;;;;;1.92;0.95;;;26.40;99.90;;;;;;4994861;28;20029;-82
2023/09/16 11:21:50;;;;;;;3.08;1.30;;;;;;;;;;4994528;28;20080;-80
2023/09/16 11:24:16;;;;;;;2.33;1.17;;;;;;;;;;4995697;28;20457;-82
2023/09/16 11:26:49;;;;;;;2.72;1.15;;;26.60;99.90;;;;;;4995987;28;20057;-82
2023/09/16 11:29:16;;;;;;;2.38;1.13;;;;;;;;;;4994794;28;20026;-82
2023/09/16 11:31:42;;;;;;;1.88;0.93;;;;;;;;;;4998172;28;20089;-82
2023/09/16 11:34:11;;;;;;;2.15;1.10;;;26.80;99.90;;;;;;4992967;28;20034;-81
2023/09/16 11:36:37;;;;;;;1.52;0.70;;;;;;;;;;4999103;28;20022;-82
2023/09/16 11:39:05;;;;;;;1.20;0.70;;;26.50;97.10;;;;;;5005236;28;20486;-81
2023/09/16 11:41:31;;;;;;;2.08;0.93;;;;;;;;;;4998966;28;20580;-81
2023/09/16 11:43:57;;;;;;;2.28;1.23;;;;;;;;;;4996693;28;20133;-81
2023/09/16 11:46:24;;;;;;;1.77;0.98;;;26.70;97.50;;;;;;4996078;28;20022;-83
2023/09/16 11:48:55;;;;;;;1.67;0.82;;;26.60;99.90;;;;;;5000360;28;20081;-82
2023/09/16 11:51:22;;;;;;;2.78;1.00;;;26.80;97.10;;;;;;5019206;28;20038;-84
2023/09/16 11:53:49;;;;;;;1.90;0.98;;;27.00;98.20;;;;;;5011169;28;20124;-83
2023/09/16 11:56:16;;;;;;;2.90;1.20;;;26.80;96.20;;;;;;4994831;28;20088;-84
2023/09/16 11:58:44;;;;;;;1.80;0.93;;;27.00;99.30;;;;;;4995770;28;20022;-83
2023/09/16 12:01:13;;;;;;;3.38;1.23;;;26.90;96.70;;;;;;4990377;28;20761;-85
2023/09/16 12:03:41;;;;;;;1.83;0.98;;;27.10;95.90;;;;;;4978798;28;22186;-79
2023/09/16 12:06:07;;;;;;;4.60;0.85;;;;;;;;;;4997533;28;20034;-84
2023/09/16 12:08:33;;;;;;;1.88;0.90;;;;;;;;;;4998404;28;20316;-82
2023/09/16 12:10:59;;;;;;;1.08;0.65;;;;;;;;;;4980929;28;20049;-82
2023/09/16 12:13:30;;;;;;;1.85;0.88;;;27.80;94.00;;;;;;4990535;28;20058;-83
2023/09/16 12:15:56;;;;;;;1.35;0.73;;;;;;;;;;4992698;28;20082;-82
2023/09/16 12:18:22;;;;;;;2.85;0.90;;;;;;;;;;4991187;28;20485;-82
2023/09/16 12:20:48;;;;;;;2.38;1.02;;;;;;;;;;4996332;28;20117;-82
2023/09/16 12:23:17;;;;;;;2.05;0.82;;;27.40;95.20;;;;;;4994988;28;20034;-83
2023/09/16 12:25:43;;;;;;;2.10;0.80;;;27.10;95.50;;;;;;4988681;28;20485;-84
2023/09/16 12:28:20;;;;;;;1.75;0.90;;;26.70;93.40;;;;;;4996371;28;20034;-83
2023/09/16 12:30:50;;;;;;;2.60;0.73;;;27.10;96.10;;;;;;5000601;28;20041;-82
2023/09/16 12:33:20;;;;;;;1.83;1.00;;;27.10;96.00;;;;;;5000685;28;20029;-82
2023/09/16 12:35:47;;;;;;;1.48;0.77;;;;;;;;;;4999078;28;20030;-83
2023/09/16 12:38:15;;;;;;;1.48;0.80;;;27.60;95.60;;;;;;5000894;28;20106;-83
2023/09/16 12:40:41;;;;;;;1.88;1.02;;;;;;;;;;4994151;28;20026;-83
2023/09/16 12:43:07;;;;;;;1.67;0.80;;;;;;;;;;4998327;28;20180;-81
2023/09/16 12:45:35;;;;;;;1.55;0.90;;;;;;;;;;4992432;28;20033;-82
2023/09/16 12:48:01;;;;;;;1.55;0.80;;;;;;;;;;4999214;28;20025;-82
2023/09/16 12:50:27;;;;;;;1.60;0.73;;;;;;;;;;5000582;28;20036;-82
2023/09/16 12:52:54;;;;;;;1.58;0.93;;;27.30;95.20;;;;;;4994778;28;20029;-82
2023/09/16 12:55:24;;;;;;;1.42;0.90;;;26.00;95.60;;;;;;4997248;28;20050;-82
2023/09/16 12:57:51;;;;;;;1.30;0.75;;;27.30;99.90;;;;;;4995551;28;20034;-83
2023/09/16 13:00:25;;;;;;;1.45;0.80;;;27.00;93.20;;;;;;5000636;28;20028;-84
2023/09/16 13:02:52;;;;;;;1.70;1.00;;;27.40;95.50;;;;;;4994334;28;20045;-83
2023/09/16 13:05:27;;;;;;;4.15;0.80;;;26.90;99.90;;;;;;4997759;28;20029;-83
2023/09/16 13:07:57;;;;;;;1.02;0.63;;;27.40;95.00;;;;;;4997943;28;20025;-84
2023/09/16 13:10:23;;;;;;;3.15;0.77;;;;;;;;;;4997022;28;20091;-83
2023/09/16 13:13:00;;;;;;;2.00;1.00;;;27.50;95.70;;;;;;5001741;28;20018;-83
2023/09/16 13:15:27;;;;;;;1.75;0.88;;;;;;;;;;5004543;28;20057;-80
2023/09/16 13:18:04;;;;;;;2.33;1.00;;;27.90;94.80;;;;;;5003151;28;20034;-82
2023/09/16 13:20:40;;;;;;;1.85;1.10;;;27.40;95.60;;;;;;4998385;28;20030;-82
2023/09/16 13:23:06;;;;;;;1.65;0.90;;;27.60;95.20;;;;;;4999405;28;20573;-85
2023/09/16 13:25:40;;;;;;;2.10;0.88;;;27.60;96.00;;;;;;4993593;28;20523;-81
2023/09/16 13:28:14;;;;;;;2.00;1.02;;;27.60;99.90;;;;;;4993430;28;20148;-81
2023/09/16 13:30:42;;;;;;;1.75;0.90;;;28.00;95.90;;;;;;4994017;28;20057;-82
2023/09/16 13:33:09;;;;;;;1.77;1.17;;;;;;;;;;4996938;28;20042;-82
2023/09/16 13:35:37;;;;;;;2.35;1.00;;;27.40;95.20;;;;;;4992947;28;20036;-83
2023/09/16 13:38:06;;;;;;;2.40;1.15;;;27.10;99.90;;;;;;4997583;28;20348;-80
2023/09/16 13:40:33;;;;;;;1.48;0.80;;;;;;;;;;4996454;28;20423;-82
2023/09/16 13:43:00;;;;;;;1.67;0.90;;;27.10;95.70;;;;;;4995537;28;20032;-82
2023/09/16 13:45:26;;;;;;;2.80;1.10;;;27.30;95.10;;;;;;4997057;28;20080;-83
2023/09/16 13:48:12;;;;;;;5.43;0.88;;;27.50;99.90;;;;;;4998003;28;20040;-79
2023/09/16 13:50:41;;;;;;;1.38;0.70;;;27.10;95.20;;;;;;4997756;28;20108;-85
2023/09/16 13:53:07;;;;;;;1.40;0.90;;;;;;;;;;4987424;28;20037;-86
2023/09/16 13:55:33;;;;;;;1.80;0.80;;;;;;;;;;4988529;28;20065;-82
2023/09/16 13:57:59;;;;;;;1.55;0.63;;;;;;;;;;5000287;28;20217;-80